Time;durP1;ratioP1;P1;durP2;ratioP2;P2;SDS_P1;SDS_P2;PMS_P1;PMS_P2;Temp;Humidity;BMP_temperature;BMP_pressure;BME280_temperature;BME280_humidity;BME280_pressure;Samples;Min_cycle;Max_cycle;Signal;HPM_P1;HPM_P2
2022/12/18 00:01:27;;;;;;;;;;;-3273.80;49.20;;;;;;5011037;28;19914;-87
2022/12/18 00:03:53;;;;;;;;;;;-3273.80;49.00;;;;;;5008825;28;19929;-88
2022/12/18 00:06:19;;;;;;;;;;;-3273.80;49.10;;;;;;5010770;28;19920;-86
2022/12/18 00:08:45;;;;;;;;;;;-3273.80;48.90;;;;;;5011531;28;20016;-88
2022/12/18 00:11:12;;;;;;;;;;;-3273.80;49.00;;;;;;5009243;28;20020;-87
2022/12/18 00:13:37;;;;;;;;;;;-3273.80;49.20;;;;;;5009943;28;20427;-88
2022/12/18 00:16:04;;;;;;;;;;;-3273.80;48.90;;;;;;5009864;28;20020;-88
2022/12/18 00:18:30;;;;;;;;;;;-3273.80;48.60;;;;;;5010419;28;19961;-89
2022/12/18 00:20:58;;;;;;;;;;;-3273.70;48.40;;;;;;5010556;28;19961;-87
2022/12/18 00:23:24;;;;;;;;;;;-3273.70;48.60;;;;;;5008417;28;20550;-87
2022/12/18 00:25:49;;;;;;;;;;;-3273.70;48.80;;;;;;5010855;28;20024;-89
2022/12/18 00:28:14;;;;;;;;;;;-3273.70;48.80;;;;;;5014638;28;20032;-87
2022/12/18 00:30:40;;;;;;;;;;;-3273.70;48.70;;;;;;5015962;28;19921;-89
2022/12/18 00:33:05;;;;;;;;;;;-3273.70;48.50;;;;;;5012344;28;20004;-88
2022/12/18 00:35:31;;;;;;;;;;;-3273.60;48.40;;;;;;5013872;28;19914;-86
2022/12/18 00:37:56;;;;;;;;;;;-3273.60;48.30;;;;;;5013378;28;19913;-87
2022/12/18 00:40:22;;;;;;;;;;;-3273.60;48.20;;;;;;5014873;28;19914;-88
2022/12/18 00:42:57;;;;;;;;;;;-3273.50;48.10;;;;;;5012001;28;19929;-86
2022/12/18 00:45:25;;;;;;;;;;;-3273.50;48.20;;;;;;5012181;28;19949;-87
2022/12/18 00:47:50;;;;;;;;;;;-3273.50;48.20;;;;;;5013929;28;19921;-89
2022/12/18 00:50:16;;;;;;;;;;;-3273.40;48.20;;;;;;5013494;28;19959;-88
2022/12/18 00:52:42;;;;;;;;;;;-3273.40;48.50;;;;;;5011507;28;19945;-87
2022/12/18 00:55:08;;;;;;;;;;;-3273.40;48.50;;;;;;5011973;28;19913;-88
2022/12/18 00:57:33;;;;;;;;;;;-3273.40;48.70;;;;;;5012839;28;19913;-87
2022/12/18 00:59:59;;;;;;;;;;;-3273.40;48.90;;;;;;5016190;28;19937;-88
2022/12/18 01:02:24;;;;;;;;;;;-3273.50;49.30;;;;;;5012042;28;19914;-88
2022/12/18 01:04:50;;;;;;;;;;;-3273.50;49.40;;;;;;5013622;28;19913;-87
2022/12/18 01:07:15;;;;;;;;;;;-3273.60;49.40;;;;;;5016238;28;19997;-88
2022/12/18 01:09:41;;;;;;;;;;;-3273.50;49.40;;;;;;5012806;28;19920;-88
2022/12/18 01:12:06;;;;;;;;;;;-3273.60;49.30;;;;;;5013877;28;19913;-88
2022/12/18 01:14:32;;;;;;;;;;;-3273.60;49.30;;;;;;5013247;28;19959;-86
2022/12/18 01:16:57;;;;;;;;;;;-3273.60;49.40;;;;;;5011972;28;20008;-88
2022/12/18 01:19:23;;;;;;;;;;;-3273.60;49.60;;;;;;5012956;28;20426;-87
2022/12/18 01:21:49;;;;;;;;;;;-3273.60;49.70;;;;;;5014808;28;19921;-88
2022/12/18 01:24:15;;;;;;;;;;;-3273.60;49.70;;;;;;5013097;28;19980;-87
2022/12/18 01:26:40;;;;;;;;;;;-3273.70;49.50;;;;;;5011292;28;20357;-87
2022/12/18 01:29:06;;;;;;;;;;;-3273.60;49.30;;;;;;5013431;28;19913;-87
2022/12/18 01:31:33;;;;;;;;;;;-3273.70;49.20;;;;;;5018737;28;19918;-87
2022/12/18 01:34:03;;;;;;;;;;;-3273.70;49.30;;;;;;5016764;28;19915;-86
2022/12/18 01:36:30;;;;;;;;;;;-3273.70;49.20;;;;;;5013842;28;20427;-87
2022/12/18 01:38:55;;;;;;;;;;;-3273.60;48.90;;;;;;5013286;28;19913;-87
2022/12/18 01:41:22;;;;;;;;;;;-3273.60;48.80;;;;;;5012933;28;20039;-86
2022/12/18 01:43:55;;;;;;;;;;;-3273.60;48.80;;;;;;5012051;28;19927;-87
2022/12/18 01:46:24;;;;;;;;;;;-3273.60;48.60;;;;;;5011567;28;19927;-87
2022/12/18 01:48:52;;;;;;;;;;;-3273.60;48.50;;;;;;5011692;28;19984;-87
2022/12/18 01:51:17;;;;;;;;;;;-3273.60;48.80;;;;;;5012474;28;19921;-87
2022/12/18 01:53:44;;;;;;;;;;;-3273.60;48.90;;;;;;5016800;28;19918;-88
2022/12/18 01:56:12;;;;;;;;;;;-3273.60;48.90;;;;;;5012130;28;19945;-87
2022/12/18 01:58:40;;;;;;;;;;;-3273.60;49.00;;;;;;5012855;28;19985;-88
2022/12/18 02:01:06;;;;;;;;;;;-3273.50;49.00;;;;;;5012317;28;19909;-86
2022/12/18 02:03:31;;;;;;;;;;;-3273.60;49.20;;;;;;5011857;28;19925;-88
2022/12/18 02:06:16;;;;;;;;;;;-3273.60;49.10;;;;;;5013627;28;20315;-87
2022/12/18 02:09:00;;;;;;;;;;;-3273.50;48.90;;;;;;5013009;28;20431;-87
2022/12/18 02:11:28;;;;;;;;;;;-3273.50;48.70;;;;;;5011951;28;19917;-88
2022/12/18 02:14:01;;;;;;;;;;;-3273.50;48.50;;;;;;5011306;28;19979;-86
2022/12/18 02:16:36;;;;;;;;;;;-3273.40;48.20;;;;;;5013024;28;19959;-87
2022/12/18 02:19:06;;;;;;;;;;;-3273.40;48.20;;;;;;5015341;28;20393;-87
2022/12/18 02:21:56;;;;;;;;;;;-3273.40;48.20;;;;;;5012698;28;20360;-86
2022/12/18 02:24:30;;;;;;;;;;;-3273.40;48.10;;;;;;5010134;28;19930;-86
2022/12/18 02:27:00;;;;;;;;;;;-3273.30;48.00;;;;;;5011622;28;19910;-86
2022/12/18 02:29:29;;;;;;;;;;;-3273.30;48.00;;;;;;5011426;28;19918;-87
2022/12/18 02:31:56;;;;;;;;;;;-3273.30;48.00;;;;;;5013797;28;19975;-87
2022/12/18 02:34:24;;;;;;;;;;;-3273.30;48.20;;;;;;5010371;28;19918;-86
2022/12/18 02:36:51;;;;;;;;;;;-3273.30;48.30;;;;;;5010163;28;19910;-86
2022/12/18 02:39:17;;;;;;;;;;;-3273.30;48.30;;;;;;5010370;28;19963;-86
2022/12/18 02:41:43;;;;;;;;;;;-3273.30;48.50;;;;;;5012115;28;20004;-87
2022/12/18 02:44:10;;;;;;;;;;;-3273.40;48.60;;;;;;5010556;28;20023;-88
2022/12/18 02:46:40;;;;;;;;;;;-3273.40;48.50;;;;;;5012339;28;19909;-85
2022/12/18 02:49:11;;;;;;;;;;;-3273.40;48.70;;;;;;5011257;28;20063;-86
2022/12/18 02:51:42;;;;;;;;;;;-3273.40;49.10;;;;;;5009821;28;19918;-86
2022/12/18 02:54:14;;;;;;;;;;;-3273.40;49.30;;;;;;5014841;28;19991;-87
2022/12/18 02:56:42;;;;;;;;;;;-3273.50;49.30;;;;;;5010520;28;20008;-87
2022/12/18 02:59:21;;;;;;;;;;;-3273.40;49.30;;;;;;5009864;28;19913;-88
2022/12/18 03:01:47;;;;;;;;;;;-3273.50;49.20;;;;;;5012220;28;19969;-87
2022/12/18 03:04:31;;;;;;;;;;;-3273.50;48.90;;;;;;5011392;28;20406;-86
2022/12/18 03:06:58;;;;;;;;;;;-3273.40;48.60;;;;;;5011470;28;20014;-88
2022/12/18 03:09:32;;;;;;;;;;;-3273.40;48.20;;;;;;5010857;28;19924;-87
2022/12/18 03:14:47;;;;;;;;;;;-3273.20;47.50;;;;;;5010770;28;19924;-87
2022/12/18 03:17:14;;;;;;;;;;;-3273.20;47.60;;;;;;5011814;28;19914;-87
2022/12/18 03:19:41;;;;;;;;;;;-3273.10;48.00;;;;;;5010686;28;19916;-87
2022/12/18 03:22:07;;;;;;;;;;;-3273.10;47.90;;;;;;5011140;28;19919;-86
2022/12/18 03:24:33;;;;;;;;;;;-3273.10;47.80;;;;;;5013108;28;19918;-87
2022/12/18 03:27:00;;;;;;;;;;;-3273.00;47.80;;;;;;5009815;28;19918;-86
2022/12/18 03:29:46;;;;;;;;;;;-3273.10;48.00;;;;;;5010532;28;19914;-87
2022/12/18 03:32:15;;;;;;;;;;;-3273.00;48.20;;;;;;5009925;28;19996;-88
2022/12/18 03:34:42;;;;;;;;;;;-3273.00;48.20;;;;;;5010671;28;19925;-87
2022/12/18 03:37:07;;;;;;;;;;;-3273.00;48.10;;;;;;5011991;28;19920;-87
2022/12/18 03:39:34;;;;;;;;;;;-3273.00;47.80;;;;;;5010004;28;20417;-86
2022/12/18 03:42:13;;;;;;;;;;;-3273.00;47.50;;;;;;5010844;28;19929;-87
2022/12/18 03:44:41;;;;;;;;;;;-3272.90;47.60;;;;;;5009453;28;19940;-87
2022/12/18 03:47:14;;;;;;;;;;;-3272.90;47.90;;;;;;5010376;28;20347;-87
2022/12/18 03:49:46;;;;;;;;;;;-3272.90;47.80;;;;;;5011960;28;19921;-87
2022/12/18 03:52:16;;;;;;;;;;;-3272.90;48.00;;;;;;5012084;28;19932;-86
2022/12/18 03:54:42;;;;;;;;;;;-3272.90;48.40;;;;;;5010480;28;19971;-88
2022/12/18 03:57:28;;;;;;;;;;;-3272.90;48.90;;;;;;5009937;28;19956;-86
2022/12/18 03:59:59;;;;;;;;;;;-3273.00;49.20;;;;;;5010146;28;20357;-87
2022/12/18 04:02:25;;;;;;;;;;;-3273.10;49.40;;;;;;5014538;28;19914;-87
2022/12/18 04:04:52;;;;;;;;;;;-3273.10;49.20;;;;;;5013468;28;19918;-85
2022/12/18 04:07:18;;;;;;;;;;;-3273.20;48.70;;;;;;5016815;28;19921;-88
2022/12/18 04:09:44;;;;;;;;;;;-3273.10;48.10;;;;;;5015245;28;19909;-86
2022/12/18 04:12:10;;;;;;;;;;;-3273.00;47.70;;;;;;5016200;28;19920;-87
2022/12/18 04:14:35;;;;;;;;;;;-3272.90;47.40;;;;;;5012831;28;19979;-87
2022/12/18 04:17:01;;;;;;;;;;;-3272.80;47.10;;;;;;5014130;28;20292;-87
2022/12/18 04:19:26;;;;;;;;;;;-3272.70;46.90;;;;;;5012991;28;19914;-87
2022/12/18 04:21:52;;;;;;;;;;;-3272.60;46.70;;;;;;5013957;28;19914;-87
2022/12/18 04:24:17;;;;;;;;;;;-3272.50;46.50;;;;;;5012939;28;20384;-87
2022/12/18 04:26:43;;;;;;;;;;;-3272.50;46.60;;;;;;5015405;28;19917;-87
2022/12/18 04:29:08;;;;;;;;;;;-3272.40;46.80;;;;;;5015159;28;19918;-86
2022/12/18 04:31:33;;;;;;;;;;;-3272.40;47.20;;;;;;5014265;28;20008;-87
2022/12/18 04:33:59;;;;;;;;;;;-3272.50;47.60;;;;;;5014753;28;19917;-86
2022/12/18 04:36:26;;;;;;;;;;;-3272.50;47.80;;;;;;5012256;28;19914;-86
2022/12/18 04:38:51;;;;;;;;;;;-3272.50;48.10;;;;;;5017150;28;19914;-87
2022/12/18 04:41:17;;;;;;;;;;;-3272.60;48.60;;;;;;5033942;28;19917;-87
2022/12/18 04:43:42;;;;;;;;;;;-3272.70;48.70;;;;;;5031452;28;20292;-87
2022/12/18 04:46:08;;;;;;;;;;;-3272.70;48.70;;;;;;5032410;28;19921;-86
2022/12/18 04:48:34;;;;;;;;;;;-3272.80;48.60;;;;;;5031877;28;19920;-88
2022/12/18 04:50:59;;;;;;;;;;;-3272.80;48.30;;;;;;5032463;28;20012;-87
2022/12/18 04:53:25;;;;;;;;;;;-3272.70;48.10;;;;;;5031026;28;20427;-86
2022/12/18 04:55:50;;;;;;;;;;;-3272.70;47.70;;;;;;5032946;28;19953;-88
2022/12/18 04:58:16;;;;;;;;;;;-3272.70;47.50;;;;;;5033125;28;20021;-87
2022/12/18 05:00:41;;;;;;;;;;;-3272.70;47.40;;;;;;5033228;28;19913;-89
2022/12/18 05:03:07;;;;;;;;;;;-3272.60;47.60;;;;;;5032922;28;19936;-88
2022/12/18 05:05:34;;;;;;;;;;;-3272.60;47.90;;;;;;5032780;28;19913;-88
2022/12/18 05:08:00;;;;;;;;;;;-3272.70;48.20;;;;;;5031595;28;19917;-87
2022/12/18 05:10:25;;;;;;;;;;;-3272.70;48.20;;;;;;5031192;28;19924;-87
2022/12/18 05:13:00;;;;;;;;;;;-3272.70;48.10;;;;;;5031848;28;19947;-87
2022/12/18 05:15:29;;;;;;;;;;;-3272.70;47.80;;;;;;5031119;28;20272;-86
2022/12/18 05:17:55;;;;;;;;;;;-3272.60;47.40;;;;;;5030915;28;19917;-87
2022/12/18 05:20:20;;;;;;;;;;;-3272.50;47.00;;;;;;5033378;28;19940;-87
2022/12/18 05:22:46;;;;;;;;;;;-3272.50;46.80;;;;;;5032137;28;20403;-89
2022/12/18 05:25:11;;;;;;;;;;;-3272.40;46.60;;;;;;5033801;28;19959;-87
2022/12/18 05:27:37;;;;;;;;;;;-3272.30;46.60;;;;;;5030738;28;19920;-88
2022/12/18 05:30:03;;;;;;;;;;;-3272.30;46.80;;;;;;5031095;28;19913;-87
2022/12/18 05:32:28;;;;;;;;;;;-3272.20;46.90;;;;;;5030991;28;20439;-89
2022/12/18 05:34:54;;;;;;;;;;;-3272.20;47.00;;;;;;5032922;28;20261;-88
2022/12/18 05:37:19;;;;;;;;;;;-3272.10;47.10;;;;;;5030819;28;20547;-87
2022/12/18 05:39:45;;;;;;;;;;;-3272.10;47.30;;;;;;5030506;28;20368;-87
2022/12/18 05:42:10;;;;;;;;;;;-3272.20;47.60;;;;;;5030603;28;20447;-86
2022/12/18 05:44:35;;;;;;;;;;;-3272.20;47.90;;;;;;5031445;28;19921;-87
2022/12/18 05:47:01;;;;;;;;;;;-3272.20;48.10;;;;;;5030729;28;19924;-86
2022/12/18 05:49:27;;;;;;;;;;;-3272.30;48.30;;;;;;5030804;28;19956;-87
2022/12/18 05:51:52;;;;;;;;;;;-3272.40;48.30;;;;;;5032776;28;19936;-87
2022/12/18 05:54:18;;;;;;;;;;;-3272.40;48.30;;;;;;5031073;28;20008;-87
2022/12/18 05:56:43;;;;;;;;;;;-3272.50;48.50;;;;;;5031229;28;19913;-87
2022/12/18 05:59:09;;;;;;;;;;;-3272.50;48.50;;;;;;5030065;28;19924;-87
2022/12/18 06:01:35;;;;;;;;;;;-3272.50;48.30;;;;;;5030366;28;19913;-85
2022/12/18 06:04:00;;;;;;;;;;;-3272.50;48.00;;;;;;5031418;28;19929;-88
2022/12/18 06:06:26;;;;;;;;;;;-3272.50;47.90;;;;;;5030185;28;19960;-88
2022/12/18 06:08:52;;;;;;;;;;;-3272.60;47.90;;;;;;5031669;28;19924;-89
2022/12/18 06:11:19;;;;;;;;;;;-3272.60;47.90;;;;;;5030166;28;19913;-87
2022/12/18 06:13:45;;;;;;;;;;;-3272.60;47.90;;;;;;5032424;28;19920;-88
2022/12/18 06:16:10;;;;;;;;;;;-3272.60;48.10;;;;;;5031506;28;19921;-87
2022/12/18 06:18:36;;;;;;;;;;;-3272.70;48.20;;;;;;5030999;28;19967;-86
2022/12/18 06:21:01;;;;;;;;;;;-3272.70;48.20;;;;;;5031363;28;20011;-88
2022/12/18 06:23:27;;;;;;;;;;;-3272.70;48.40;;;;;;5030194;28;19957;-87
2022/12/18 06:25:52;;;;;;;;;;;-3272.70;48.50;;;;;;5030714;28;19913;-87
2022/12/18 06:28:18;;;;;;;;;;;-3272.70;48.60;;;;;;5030907;28;19913;-87
2022/12/18 06:30:44;;;;;;;;;;;-3272.70;48.40;;;;;;5031559;28;19984;-87
2022/12/18 06:33:09;;;;;;;;;;;-3272.70;48.10;;;;;;5029349;28;20326;-87
2022/12/18 06:35:35;;;;;;;;;;;-3272.70;47.90;;;;;;5031004;28;19913;-87
2022/12/18 06:38:03;;;;;;;;;;;-3272.70;48.00;;;;;;5030562;28;19936;-87
2022/12/18 06:40:29;;;;;;;;;;;-3272.70;48.70;;;;;;5031439;28;19944;-88
2022/12/18 06:42:54;;;;;;;;;;;-3272.70;48.90;;;;;;5030728;28;20010;-88
2022/12/18 06:45:20;;;;;;;;;;;-3272.70;48.80;;;;;;5029991;28;19921;-86
2022/12/18 06:47:45;;;;;;;;;;;-3272.60;48.60;;;;;;5030691;28;20004;-87
2022/12/18 06:50:11;;;;;;;;;;;-3272.60;48.10;;;;;;5032125;28;20371;-87
2022/12/18 06:52:37;;;;;;;;;;;-3272.60;47.90;;;;;;5030707;28;19921;-86
2022/12/18 06:55:03;;;;;;;;;;;-3272.50;48.00;;;;;;5029915;28;19968;-87
2022/12/18 06:57:28;;;;;;;;;;;-3272.60;48.00;;;;;;5031851;28;20004;-87
2022/12/18 06:59:54;;;;;;;;;;;-3272.60;48.00;;;;;;5030967;28;19921;-88
2022/12/18 07:02:19;;;;;;;;;;;-3272.60;48.00;;;;;;5030698;28;19919;-87
2022/12/18 07:04:45;;;;;;;;;;;-3272.50;47.70;;;;;;5030395;28;20011;-87
2022/12/18 07:07:10;;;;;;;;;;;-3272.50;47.60;;;;;;5030798;28;19925;-86
2022/12/18 07:09:36;;;;;;;;;;;-3272.40;47.50;;;;;;5029513;28;19909;-86
2022/12/18 07:12:01;;;;;;;;;;;-3272.50;47.70;;;;;;5030807;28;19960;-86
2022/12/18 07:14:27;;;;;;;;;;;-3272.50;47.90;;;;;;5030391;28;19909;-88
2022/12/18 07:16:52;;;;;;;;;;;-3272.50;48.00;;;;;;5030836;28;19917;-88
2022/12/18 07:19:18;;;;;;;;;;;-3272.50;48.10;;;;;;5030124;28;19971;-88
2022/12/18 07:21:43;;;;;;;;;;;-3272.50;48.20;;;;;;5031735;28;19916;-87
2022/12/18 07:24:09;;;;;;;;;;;-3272.50;48.00;;;;;;5028653;28;20552;-85
2022/12/18 07:26:34;;;;;;;;;;;-3272.50;47.90;;;;;;5029946;28;19916;-87
2022/12/18 07:29:00;;;;;;;;;;;-3272.50;47.90;;;;;;5029541;28;20355;-88
2022/12/18 07:31:26;;;;;;;;;;;-3272.60;48.50;;;;;;5031481;28;20375;-87
2022/12/18 07:33:51;;;;;;;;;;;-3272.60;48.80;;;;;;5030269;28;19931;-88
2022/12/18 07:36:17;;;;;;;;;;;-3272.70;49.20;;;;;;5031946;28;19916;-87
2022/12/18 07:38:43;;;;;;;;;;;-3272.80;49.70;;;;;;5033468;28;20012;-88
2022/12/18 07:41:12;;;;;;;;;;;-3272.90;50.60;;;;;;5033399;28;19909;-86
2022/12/18 07:43:38;;;;;;;;;;;-3273.20;51.60;;;;;;5033912;28;19932;-87
2022/12/18 07:46:04;;;;;;;;;;;-3273.40;52.40;;;;;;5035258;28;19960;-88
2022/12/18 07:48:30;;;;;;;;;;;-3273.60;53.10;;;;;;5034741;28;19940;-87
2022/12/18 07:50:59;;;;;;;;;;;-3273.90;53.90;;;;;;5033330;28;19913;-86
2022/12/18 07:53:26;;;;;;;;;;;-3274.20;54.50;;;;;;5032882;28;19990;-88
2022/12/18 07:55:55;;;;;;;;;;;-3274.60;55.10;;;;;;5034514;28;19920;-88
2022/12/18 07:58:20;;;;;;;;;;;-3274.80;55.50;;;;;;5033369;28;19917;-88
2022/12/18 08:00:46;;;;;;;;;;;-3275.20;55.90;;;;;;5033088;28;19914;-88
2022/12/18 08:03:14;;;;;;;;;;;-3275.50;56.10;;;;;;5032604;28;19925;-87
2022/12/18 08:05:40;;;;;;;;;;;-3275.80;56.30;;;;;;5032900;28;19921;-86
2022/12/18 08:08:05;;;;;;;;;;;-3276.20;56.40;;;;;;5032732;28;20284;-88
2022/12/18 08:10:31;;;;;;;;;;;-3276.40;56.50;;;;;;5034001;28;20452;-88
2022/12/18 08:12:56;;;;;;;;;;;-3276.70;56.60;;;;;;5033435;28;19928;-87
2022/12/18 08:15:22;;;;;;;;;;;0.10;56.70;;;;;;5032070;28;19917;-88
2022/12/18 08:17:47;;;;;;;;;;;0.40;56.90;;;;;;5031916;28;19913;-88
2022/12/18 08:20:14;;;;;;;;;;;0.70;56.60;;;;;;5033753;28;19917;-88
2022/12/18 08:22:41;;;;;;;;;;;0.80;56.20;;;;;;5030458;28;19913;-87
2022/12/18 08:25:07;;;;;;;;;;;1.10;56.60;;;;;;5030294;28;19948;-88
2022/12/18 08:27:32;;;;;;;;;;;1.30;57.00;;;;;;5065377;28;19948;-86
2022/12/18 08:29:57;;;;;;;;;;;1.70;57.50;;;;;;5034086;28;20284;-87
2022/12/18 08:32:24;;;;;;;;;;;2.00;57.50;;;;;;5065048;28;19920;-88
2022/12/18 08:34:49;;;;;;;;;;;2.20;57.60;;;;;;5056963;28;19925;-88
2022/12/18 08:37:15;;;;;;;;;;;2.60;57.80;;;;;;5052687;28;19992;-87
2022/12/18 08:39:40;;;;;;;;;;;2.80;57.60;;;;;;5033694;28;19917;-87
2022/12/18 08:44:50;;;;;;;;;;;3.20;57.40;;;;;;5034589;28;19924;-87
2022/12/18 08:47:16;;;;;;;;;;;3.40;57.60;;;;;;5033119;28;20385;-87
2022/12/18 08:49:41;;;;;;;;;;;3.60;57.90;;;;;;5065469;28;19909;-87
2022/12/18 08:52:07;;;;;;;;;;;4.00;58.40;;;;;;5037115;28;19983;-87
2022/12/18 08:54:32;;;;;;;;;;;4.10;57.70;;;;;;5067025;28;19932;-86
2022/12/18 08:56:57;;;;;;;;;;;4.20;57.00;;;;;;5033621;28;20283;-87
2022/12/18 08:59:23;;;;;;;;;;;4.20;56.50;;;;;;5033419;28;19999;-88
2022/12/18 09:01:49;;;;;;;;;;;4.20;56.90;;;;;;5035293;28;19913;-88
2022/12/18 09:04:14;;;;;;;;;;;4.40;57.20;;;;;;5031906;28;20300;-86
2022/12/18 09:06:40;;;;;;;;;;;4.40;56.70;;;;;;5065775;28;19913;-86
2022/12/18 09:09:05;;;;;;;;;;;4.40;56.90;;;;;;5067219;28;20491;-86
2022/12/18 09:11:32;;;;;;;;;;;4.40;56.80;;;;;;5036071;28;19917;-86
2022/12/18 09:13:58;;;;;;;;;;;4.40;56.00;;;;;;5036235;28;19924;-87
2022/12/18 09:16:24;;;;;;;;;;;4.30;55.90;;;;;;5033283;28;19960;-87
2022/12/18 09:18:49;;;;;;;;;;;4.20;55.60;;;;;;5034367;28;19913;-86
2022/12/18 09:21:16;;;;;;;;;;;4.10;55.70;;;;;;5033248;28;19917;-88
2022/12/18 09:23:41;;;;;;;;;;;4.00;55.80;;;;;;5064370;28;19979;-87
2022/12/18 09:26:07;;;;;;;;;;;4.00;55.80;;;;;;5064942;28;19913;-87
2022/12/18 09:28:32;;;;;;;;;;;3.90;55.90;;;;;;5032509;28;19913;-88
2022/12/18 09:30:58;;;;;;;;;;;3.80;55.80;;;;;;5065576;28;20479;-87
2022/12/18 09:33:23;;;;;;;;;;;3.80;56.00;;;;;;5066982;28;20007;-87
2022/12/18 09:35:49;;;;;;;;;;;3.90;56.40;;;;;;5034481;28;20019;-88
2022/12/18 09:38:16;;;;;;;;;;;3.90;56.60;;;;;;5065030;28;19936;-87
2022/12/18 09:40:43;;;;;;;;;;;3.90;56.60;;;;;;5065713;28;19917;-88
2022/12/18 09:43:13;;;;;;;;;;;3.90;56.30;;;;;;5032193;28;19922;-87
2022/12/18 09:45:42;;;;;;;;;;;3.90;56.40;;;;;;5064917;28;19913;-88
2022/12/18 09:48:15;;;;;;;;;;;3.90;56.50;;;;;;5035165;28;20411;-88
2022/12/18 09:50:41;;;;;;;;;;;4.00;56.60;;;;;;5033574;28;19968;-86
2022/12/18 09:53:12;;;;;;;;;;;4.00;56.90;;;;;;5031512;28;20327;-88
2022/12/18 09:55:40;;;;;;;;;;;4.00;56.80;;;;;;5032010;28;19914;-88
2022/12/18 09:58:07;;;;;;;;;;;4.10;57.30;;;;;;5032539;28;20008;-87
2022/12/18 10:00:33;;;;;;;;;;;4.30;58.10;;;;;;5033577;28;19913;-87
2022/12/18 10:03:00;;;;;;;;;;;4.50;59.00;;;;;;5032780;28;19921;-88
2022/12/18 10:05:29;;;;;;;;;;;4.70;59.40;;;;;;5033656;28;19924;-86
2022/12/18 10:07:59;;;;;;;;;;;4.90;59.30;;;;;;5031198;28;19917;-86
2022/12/18 10:10:38;;;;;;;;;;;5.10;59.00;;;;;;5031689;28;20101;-87
2022/12/18 10:13:15;;;;;;;;;;;5.20;58.90;;;;;;5031238;28;20058;-87
2022/12/18 10:15:43;;;;;;;;;;;5.30;58.70;;;;;;5050806;28;20483;-86
2022/12/18 10:18:19;;;;;;;;;;;5.40;58.60;;;;;;5031506;28;19913;-87
2022/12/18 10:20:50;;;;;;;;;;;5.50;58.80;;;;;;5026096;28;20412;-87
2022/12/18 10:23:18;;;;;;;;;;;5.70;58.90;;;;;;5020465;28;20313;-86
2022/12/18 10:25:53;;;;;;;;;;;5.80;59.30;;;;;;5017878;28;19914;-87
2022/12/18 10:28:19;;;;;;;;;;;6.10;59.40;;;;;;5018239;28;19952;-87
2022/12/18 10:30:44;;;;;;;;;;;6.30;59.20;;;;;;5024422;28;20342;-86
2022/12/18 10:33:21;;;;;;;;;;;6.40;59.10;;;;;;5019473;28;20474;-87
2022/12/18 10:35:48;;;;;;;;;;;6.50;58.50;;;;;;5021181;28;19914;-86
2022/12/18 10:38:13;;;;;;;;;;;6.60;58.50;;;;;;5025014;28;19964;-86
2022/12/18 10:40:54;;;;;;;;;;;6.60;58.40;;;;;;5062782;28;20029;-86
2022/12/18 10:43:40;;;;;;;;;;;6.70;58.40;;;;;;5010761;28;20353;-87
2022/12/18 10:46:09;;;;;;;;;;;6.80;58.80;;;;;;5014721;28;19975;-86
2022/12/18 10:48:46;;;;;;;;;;;6.90;58.20;;;;;;5011218;28;20056;-87
2022/12/18 10:51:19;;;;;;;;;;;6.90;58.20;;;;;;5011166;28;19967;-87
2022/12/18 10:53:51;;;;;;;;;;;7.00;58.00;;;;;;5010137;28;19921;-87
2022/12/18 10:56:19;;;;;;;;;;;7.00;57.90;;;;;;5011690;28;19914;-86
2022/12/18 10:59:05;;;;;;;;;;;;;;;;;;;;;
2022/12/18 11:01:45;;;;;;;;;;;6.90;56.70;;;;;;5011592;28;19913;-87
2022/12/18 11:04:16;;;;;;;;;;;6.80;55.90;;;;;;5010882;28;20024;-86
2022/12/18 11:07:00;;;;;;;;;;;6.70;56.00;;;;;;5009587;28;20296;-87
2022/12/18 11:09:31;;;;;;;;;;;6.70;56.40;;;;;;5027812;28;20012;-87
2022/12/18 11:11:58;;;;;;;;;;;6.60;56.70;;;;;;5009592;28;19936;-87
2022/12/18 11:14:29;;;;;;;;;;;6.60;56.50;;;;;;5011268;28;19922;-88
2022/12/18 11:16:55;;;;;;;;;;;6.50;56.20;;;;;;5009816;28;19914;-86
2022/12/18 11:19:32;;;;;;;;;;;6.50;55.70;;;;;;5010907;28;20366;-88
2022/12/18 11:21:59;;;;;;;;;;;6.30;55.10;;;;;;5011016;28;20531;-87
2022/12/18 11:24:31;;;;;;;;;;;6.20;55.00;;;;;;5010674;28;19933;-86
2022/12/18 11:27:00;;;;;;;;;;;6.10;54.80;;;;;;5011487;28;19913;-86
2022/12/18 11:29:29;;;;;;;;;;;5.90;55.10;;;;;;5013239;28;19918;-85
2022/12/18 11:32:13;;;;;;;;;;;5.90;55.30;;;;;;5011184;28;19909;-86
2022/12/18 11:34:40;;;;;;;;;;;5.90;55.50;;;;;;5010614;28;19928;-87
2022/12/18 11:37:05;;;;;;;;;;;5.90;55.80;;;;;;5010661;28;19918;-87
2022/12/18 11:39:34;;;;;;;;;;;5.90;55.70;;;;;;5009702;28;20019;-87
2022/12/18 11:42:30;;;;;;;;;;;5.80;55.20;;;;;;5010756;28;19929;-88
2022/12/18 11:45:10;;;;;;;;;;;5.80;55.40;;;;;;5004491;28;19918;-89
2022/12/18 11:47:43;;;;;;;;;;;5.70;55.70;;;;;;5010547;28;19918;-88
2022/12/18 11:50:13;;;;;;;;;;;5.70;55.90;;;;;;5011410;28;19917;-87
2022/12/18 11:52:40;;;;;;;;;;;5.70;56.00;;;;;;5010494;28;19925;-86
2022/12/18 11:55:16;;;;;;;;;;;5.70;55.80;;;;;;5010196;28;19914;-87
2022/12/18 11:57:47;;;;;;;;;;;5.70;56.10;;;;;;5019227;28;19925;-87
2022/12/18 12:00:12;;;;;;;;;;;5.60;56.00;;;;;;5031890;28;19913;-88
2022/12/18 12:02:41;;;;;;;;;;;5.60;56.00;;;;;;5063043;28;20249;-88
2022/12/18 12:05:25;;;;;;;;;;;5.60;56.00;;;;;;5029942;28;19921;-87
2022/12/18 12:08:11;;;;;;;;;;;5.60;55.80;;;;;;5030893;28;19937;-86
2022/12/18 12:10:56;;;;;;;;;;;5.60;56.00;;;;;;5030332;28;19913;-88
2022/12/18 12:13:26;;;;;;;;;;;5.60;55.50;;;;;;5061622;28;19917;-87
2022/12/18 12:15:57;;;;;;;;;;;5.60;56.10;;;;;;5033659;28;19917;-86
2022/12/18 12:18:55;;;;;;;;;;;5.60;56.40;;;;;;5031826;28;19913;-87
2022/12/18 12:21:24;;;;;;;;;;;5.60;56.40;;;;;;5001621;28;19948;-87
2022/12/18 12:23:58;;;;;;;;;;;5.60;55.80;;;;;;5033834;28;19921;-87
2022/12/18 12:26:33;;;;;;;;;;;5.50;55.90;;;;;;5065586;28;19917;-87
2022/12/18 12:29:02;;;;;;;;;;;5.50;56.00;;;;;;5043320;28;19913;-86
2022/12/18 12:31:28;;;;;;;;;;;5.60;56.40;;;;;;5035268;28;19913;-86
2022/12/18 12:34:02;;;;;;;;;;;5.60;56.10;;;;;;5033133;28;19917;-86
2022/12/18 12:36:45;;;;;;;;;;;5.60;56.00;;;;;;5033851;28;19957;-87
2022/12/18 12:39:16;;;;;;;;;;;5.60;56.00;;;;;;5033038;28;19913;-87
2022/12/18 12:44:27;;;;;;;;;;;5.60;56.00;;;;;;5032558;28;19975;-86
2022/12/18 12:46:57;;;;;;;;;;;5.60;55.90;;;;;;5032425;28;19916;-86
2022/12/18 12:49:25;;;;;;;;;;;5.60;55.70;;;;;;5032516;28;20468;-87
2022/12/18 12:51:56;;;;;;;;;;;5.60;55.80;;;;;;5030836;28;19948;-87
2022/12/18 12:54:22;;;;;;;;;;;5.70;56.20;;;;;;5030471;28;19932;-86
2022/12/18 12:56:50;;;;;;;;;;;5.70;56.10;;;;;;5033722;28;20378;-87
2022/12/18 12:59:25;;;;;;;;;;;5.70;56.30;;;;;;5032768;28;19960;-87
2022/12/18 13:01:50;;;;;;;;;;;5.70;55.90;;;;;;5033174;28;19991;-86
2022/12/18 13:04:38;;;;;;;;;;;5.70;56.10;;;;;;5048705;28;20025;-87
2022/12/18 13:07:06;;;;;;;;;;;5.70;55.90;;;;;;5031031;28;19917;-86
2022/12/18 13:09:32;;;;;;;;;;;5.70;56.10;;;;;;5032616;28;20004;-87
2022/12/18 13:14:52;;;;;;;;;;;5.70;55.70;;;;;;5032465;28;20434;-86
2022/12/18 13:17:21;;;;;;;;;;;5.60;55.80;;;;;;5047144;28;19921;-88
2022/12/18 13:19:50;;;;;;;;;;;5.70;55.70;;;;;;5031771;28;20007;-87
2022/12/18 13:22:23;;;;;;;;;;;5.70;55.70;;;;;;5048090;28;19917;-86
2022/12/18 13:24:49;;;;;;;;;;;5.60;55.60;;;;;;5046900;28;19917;-87
2022/12/18 13:27:33;;;;;;;;;;;5.60;55.20;;;;;;5033411;28;19923;-87
2022/12/18 13:29:58;;;;;;;;;;;5.60;55.60;;;;;;5031370;28;19941;-86
2022/12/18 13:32:25;;;;;;;;;;;5.60;55.70;;;;;;5048832;28;20273;-87
2022/12/18 13:35:09;;;;;;;;;;;5.60;55.60;;;;;;5046877;28;19976;-87
2022/12/18 13:37:42;;;;;;;;;;;5.60;55.60;;;;;;5031772;28;19917;-87
2022/12/18 13:40:26;;;;;;;;;;;5.50;55.70;;;;;;5047096;28;20051;-87
2022/12/18 13:43:13;;;;;;;;;;;5.50;55.80;;;;;;5031657;28;19918;-88
2022/12/18 13:45:41;;;;;;;;;;;5.50;55.50;;;;;;5032075;28;19913;-87
2022/12/18 13:48:14;;;;;;;;;;;5.50;55.50;;;;;;5030334;28;19921;-87
2022/12/18 13:50:39;;;;;;;;;;;5.50;55.60;;;;;;5031681;28;19996;-86
2022/12/18 13:53:05;;;;;;;;;;;5.50;55.80;;;;;;5032038;28;20079;-87
2022/12/18 13:55:30;;;;;;;;;;;5.50;55.90;;;;;;5030204;28;19940;-85
2022/12/18 13:58:05;;;;;;;;;;;5.50;55.90;;;;;;5031286;28;19968;-86
2022/12/18 14:00:30;;;;;;;;;;;5.50;55.60;;;;;;5031250;28;19940;-87
2022/12/18 14:02:57;;;;;;;;;;;5.50;55.40;;;;;;5031191;28;19920;-87
2022/12/18 14:05:23;;;;;;;;;;;5.40;55.30;;;;;;5031239;28;20411;-86
2022/12/18 14:07:49;;;;;;;;;;;5.50;55.40;;;;;;5030118;28;19921;-86
2022/12/18 14:10:16;;;;;;;;;;;5.50;55.40;;;;;;5031384;28;19924;-87
2022/12/18 14:12:57;;;;;;;;;;;5.50;55.50;;;;;;5031277;28;20346;-85
2022/12/18 14:15:25;;;;;;;;;;;5.50;55.70;;;;;;5046274;28;19917;-87
2022/12/18 14:17:52;;;;;;;;;;;5.50;56.00;;;;;;5046179;28;19917;-87
2022/12/18 14:20:18;;;;;;;;;;;5.50;55.80;;;;;;5046489;28;20383;-87